createdAt,value
2023-03-15T00:13:23.406Z,100.00
2023-03-15T00:20:59.495Z,100.00
2023-03-15T00:28:33.495Z,100.00
2023-03-15T00:36:11.204Z,100.00
2023-03-15T00:43:45.770Z,100.00
2023-03-15T00:51:23.444Z,100.00
2023-03-15T00:58:58.489Z,100.00
2023-03-15T01:06:33.841Z,100.00
2023-03-15T01:14:09.126Z,100.00
2023-03-15T01:21:47.911Z,100.00
2023-03-15T01:29:24.063Z,100.00
2023-03-15T01:37:00.949Z,100.00
2023-03-15T01:44:56.629Z,100.00
2023-03-15T01:52:37.669Z,100.00
2023-03-15T02:00:15.660Z,100.00
2023-03-15T02:07:54.718Z,100.00
2023-03-15T02:15:28.859Z,100.00
2023-03-15T02:23:07.267Z,100.00
2023-03-15T02:30:43.196Z,100.00
2023-03-15T02:38:17.228Z,100.00
2023-03-15T02:46:10.676Z,100.00
2023-03-15T02:53:44.673Z,100.00
2023-03-15T03:01:20.799Z,100.00
2023-03-15T03:08:54.712Z,100.00
2023-03-15T03:16:30.441Z,100.00
2023-03-15T03:24:04.382Z,100.00
2023-03-15T03:31:39.857Z,100.00
2023-03-15T03:39:14.127Z,100.00
2023-03-15T03:46:49.276Z,100.00
2023-03-15T03:54:23.273Z,100.00
2023-03-15T04:01:58.696Z,100.00
2023-03-15T04:09:37.591Z,100.00
2023-03-15T04:17:13.338Z,100.00
2023-03-15T04:24:50.825Z,100.00
2023-03-15T04:32:26.538Z,100.00
2023-03-15T04:40:01.522Z,100.00
2023-03-15T04:47:36.939Z,100.00
2023-03-15T04:55:11.739Z,100.00
2023-03-15T05:02:52.268Z,100.00
2023-03-15T05:10:30.870Z,100.00
2023-03-15T05:18:06.524Z,100.00
2023-03-15T05:25:40.559Z,100.00
2023-03-15T05:33:16.088Z,100.00
2023-03-15T05:40:50.450Z,100.00
2023-03-15T05:48:25.842Z,100.00
2023-03-15T05:55:59.919Z,100.00
2023-03-15T06:03:35.000Z,100.00
2023-03-15T06:11:09.161Z,100.00
2023-03-15T06:18:44.544Z,100.00
2023-03-15T06:26:19.441Z,100.00
2023-03-15T06:33:54.964Z,100.00
2023-03-15T06:41:28.987Z,100.00
2023-03-15T06:49:04.586Z,100.00
2023-03-15T06:56:38.777Z,100.00
2023-03-15T07:04:14.100Z,100.00
2023-03-15T07:11:47.945Z,100.00
2023-03-15T07:19:23.489Z,100.00
2023-03-15T07:26:57.514Z,100.00
2023-03-15T07:34:33.090Z,100.00
2023-03-15T07:42:08.167Z,100.00
2023-03-15T07:49:43.598Z,100.00
2023-03-15T07:57:17.667Z,100.00
2023-03-15T08:04:53.380Z,100.00
2023-03-15T08:12:28.112Z,100.00
2023-03-15T08:20:04.375Z,100.00
2023-03-15T08:27:38.455Z,100.00
2023-03-15T08:43:07.538Z,100.00
2023-03-15T08:50:43.209Z,100.00
2023-03-15T08:58:19.929Z,100.00
2023-03-15T09:05:58.864Z,100.00
2023-03-15T09:13:32.902Z,100.00
2023-03-15T09:21:08.493Z,100.00
2023-03-15T09:28:42.466Z,100.00
2023-03-15T09:36:18.150Z,98.08
2023-03-15T09:44:06.547Z,94.48
2023-03-15T09:51:48.590Z,90.35
2023-03-15T09:59:24.135Z,91.27
2023-03-15T10:07:02.036Z,90.63
2023-03-15T10:14:59.138Z,87.47
2023-03-15T10:22:40.063Z,88.54
2023-03-15T10:30:18.497Z,90.25
2023-03-15T10:37:53.753Z,87.33
2023-03-15T10:45:28.443Z,90.16
2023-03-15T10:53:11.326Z,91.68
2023-03-15T11:00:51.846Z,92.81
2023-03-15T11:08:38.576Z,89.31
2023-03-15T11:16:22.975Z,87.94
2023-03-15T11:24:01.191Z,82.54
2023-03-15T11:31:36.931Z,81.89
2023-03-15T11:39:15.774Z,75.17
2023-03-15T11:46:52.126Z,75.51
2023-03-15T11:54:32.498Z,75.50
2023-03-15T12:02:37.556Z,75.91
2023-03-15T12:10:34.062Z,77.35
2023-03-15T12:18:15.203Z,75.73
2023-03-15T12:33:51.491Z,70.78
2023-03-15T12:41:39.177Z,67.16
2023-03-15T12:49:15.165Z,65.30
2023-03-15T12:56:54.480Z,59.77
2023-03-15T13:04:29.636Z,55.97
2023-03-15T13:12:15.314Z,56.06
2023-03-15T13:19:57.671Z,55.55
2023-03-15T13:27:47.404Z,55.02
2023-03-15T13:35:21.370Z,54.05
2023-03-15T13:43:01.210Z,63.19
2023-03-15T13:50:35.273Z,93.36
2023-03-15T13:58:11.267Z,98.37
2023-03-15T14:05:48.207Z,93.00
2023-03-15T14:13:26.325Z,79.91
2023-03-15T14:21:01.980Z,79.82
2023-03-15T14:28:37.637Z,79.23
2023-03-15T14:36:24.149Z,69.25
2023-03-15T14:44:00.207Z,62.00
2023-03-15T14:51:34.308Z,58.53
2023-03-15T14:59:13.485Z,59.11
2023-03-15T15:06:52.262Z,59.14
2023-03-15T15:14:28.724Z,58.76
2023-03-15T15:22:02.909Z,59.11
2023-03-15T15:29:38.438Z,56.48
2023-03-15T15:37:12.853Z,54.37
2023-03-15T15:44:48.435Z,57.94
2023-03-15T15:52:22.787Z,58.43
2023-03-15T15:59:58.027Z,58.05
2023-03-15T16:07:32.349Z,64.81
2023-03-15T16:15:08.737Z,82.17
2023-03-15T16:22:44.936Z,95.48
2023-03-15T16:30:23.969Z,99.04
2023-03-15T16:37:59.770Z,100.00
2023-03-15T16:45:35.218Z,100.00
2023-03-15T16:53:11.731Z,100.00
2023-03-15T17:00:48.773Z,100.00
2023-03-15T17:08:23.108Z,100.00
2023-03-15T17:16:25.383Z,100.00
2023-03-15T17:23:59.740Z,100.00
2023-03-15T17:31:36.144Z,97.98
2023-03-15T17:39:17.004Z,97.46
2023-03-15T17:46:52.412Z,97.48
2023-03-15T17:54:26.394Z,97.75
2023-03-15T18:02:01.888Z,98.24
2023-03-15T18:09:35.682Z,99.29
2023-03-15T18:25:05.064Z,100.00
2023-03-15T18:40:33.458Z,99.57
2023-03-15T18:48:09.498Z,99.28
2023-03-15T18:55:44.722Z,99.15
2023-03-15T19:03:22.109Z,99.37
2023-03-15T19:10:59.214Z,100.00
2023-03-15T19:18:34.842Z,100.00
2023-03-15T19:26:09.223Z,100.00
2023-03-15T19:33:44.457Z,100.00
2023-03-15T19:41:18.405Z,100.00
2023-03-15T19:48:53.916Z,100.00
2023-03-15T19:56:28.076Z,100.00
2023-03-15T20:04:03.560Z,100.00
2023-03-15T20:11:37.563Z,100.00
2023-03-15T20:27:04.750Z,100.00
2023-03-15T20:34:41.502Z,100.00
2023-03-15T20:42:15.423Z,100.00
2023-03-15T20:57:43.520Z,100.00
2023-03-15T21:05:18.684Z,100.00
2023-03-15T21:12:52.646Z,100.00
2023-03-15T21:20:28.183Z,100.00
2023-03-15T21:28:02.118Z,100.00
2023-03-15T21:35:37.270Z,100.00
2023-03-15T21:43:11.403Z,100.00
2023-03-15T21:50:46.536Z,100.00
2023-03-15T21:58:20.346Z,100.00
2023-03-15T22:05:55.442Z,100.00
2023-03-15T22:13:30.219Z,100.00
2023-03-15T22:21:05.872Z,100.00
2023-03-15T22:28:39.650Z,100.00
2023-03-15T22:36:17.187Z,100.00
2023-03-15T22:43:52.686Z,100.00
2023-03-15T22:51:27.977Z,100.00
2023-03-15T22:59:01.700Z,100.00
2023-03-15T23:06:37.024Z,100.00
2023-03-15T23:14:11.148Z,100.00
2023-03-15T23:21:46.494Z,100.00
2023-03-15T23:29:20.274Z,100.00
2023-03-15T23:36:55.531Z,100.00
2023-03-15T23:44:29.250Z,100.00
2023-03-15T23:52:06.031Z,100.00
2023-03-15T23:59:41.366Z,100.00
